createdAt,value
2022-10-03T00:00:10.006Z,100.00
2022-10-03T00:03:04.297Z,100.00
2022-10-03T00:05:42.310Z,100.00
2022-10-03T00:08:18.686Z,100.00
2022-10-03T00:10:58.505Z,100.00
2022-10-03T00:13:33.435Z,100.00
2022-10-03T00:16:10.131Z,100.00
2022-10-03T00:18:50.266Z,100.00
2022-10-03T00:21:27.647Z,100.00
2022-10-03T00:24:03.974Z,100.00
2022-10-03T00:26:39.506Z,100.00
2022-10-03T00:29:41.026Z,100.00
2022-10-03T00:32:19.926Z,100.00
2022-10-03T00:35:08.415Z,100.00
2022-10-03T00:37:39.068Z,100.00
2022-10-03T00:40:39.699Z,100.00
2022-10-03T00:43:43.536Z,100.00
2022-10-03T00:46:37.459Z,100.00
2022-10-03T00:49:28.236Z,100.00
2022-10-03T00:52:05.186Z,100.00
2022-10-03T00:54:45.965Z,100.00
2022-10-03T00:57:24.885Z,100.00
2022-10-03T01:00:06.998Z,100.00
2022-10-03T01:02:48.987Z,100.00
2022-10-03T01:05:25.373Z,100.00
2022-10-03T01:08:21.173Z,100.00
2022-10-03T01:10:54.926Z,100.00
2022-10-03T01:13:33.499Z,100.00
2022-10-03T01:16:13.164Z,100.00
2022-10-03T01:18:52.787Z,100.00
2022-10-03T01:21:30.415Z,100.00
2022-10-03T01:24:20.786Z,100.00
2022-10-03T01:26:57.725Z,100.00
2022-10-03T01:29:57.755Z,100.00
2022-10-03T01:32:32.149Z,100.00
2022-10-03T01:35:08.413Z,100.00
2022-10-03T01:37:42.558Z,100.00
2022-10-03T01:40:18.156Z,100.00
2022-10-03T01:42:57.425Z,100.00
2022-10-03T01:45:31.313Z,100.00
2022-10-03T01:48:02.728Z,100.00
2022-10-03T01:50:36.627Z,100.00
2022-10-03T01:53:09.353Z,100.00
2022-10-03T01:55:51.246Z,100.00
2022-10-03T01:58:27.393Z,100.00
2022-10-03T02:01:01.311Z,100.00
2022-10-03T02:03:32.378Z,100.00
2022-10-03T02:06:04.788Z,100.00
2022-10-03T02:08:43.330Z,100.00
2022-10-03T02:11:12.729Z,100.00
2022-10-03T02:13:45.919Z,100.00
2022-10-03T02:16:22.946Z,100.00
2022-10-03T02:18:53.713Z,100.00
2022-10-03T02:21:23.928Z,100.00
2022-10-03T02:24:06.579Z,100.00
2022-10-03T02:27:07.673Z,100.00
2022-10-03T02:30:04.442Z,100.00
2022-10-03T02:33:20.189Z,100.00
2022-10-03T02:36:09.349Z,100.00
2022-10-03T02:38:59.848Z,100.00
2022-10-03T02:41:44.098Z,100.00
2022-10-03T02:44:23.560Z,100.00
2022-10-03T02:47:23.478Z,100.00
2022-10-03T02:50:31.448Z,100.00
2022-10-03T02:53:48.510Z,100.00
2022-10-03T02:56:34.548Z,100.00
2022-10-03T02:59:44.399Z,100.00
2022-10-03T03:02:42.258Z,100.00
2022-10-03T03:05:38.178Z,100.00
2022-10-03T03:08:38.639Z,100.00
2022-10-03T03:11:18.878Z,100.00
2022-10-03T03:14:09.799Z,100.00
2022-10-03T03:16:57.388Z,100.00
2022-10-03T03:19:44.021Z,100.00
2022-10-03T03:22:28.178Z,100.00
2022-10-03T03:25:07.939Z,100.00
2022-10-03T03:27:43.168Z,100.00
2022-10-03T03:30:13.228Z,100.00
2022-10-03T03:32:52.178Z,100.00
2022-10-03T03:35:28.477Z,100.00
2022-10-03T03:38:08.473Z,100.00
2022-10-03T03:40:42.094Z,100.00
2022-10-03T03:43:27.180Z,100.00
2022-10-03T03:46:04.571Z,100.00
2022-10-03T03:48:50.674Z,100.00
2022-10-03T03:51:24.954Z,100.00
2022-10-03T03:54:26.311Z,100.00
2022-10-03T03:57:14.600Z,100.00
2022-10-03T04:00:13.860Z,100.00
2022-10-03T04:03:04.917Z,100.00
2022-10-03T04:05:43.484Z,100.00
2022-10-03T04:08:31.511Z,100.00
2022-10-03T04:11:13.801Z,100.00
2022-10-03T04:13:57.237Z,100.00
2022-10-03T04:16:59.182Z,100.00
2022-10-03T04:19:34.482Z,100.00
2022-10-03T04:22:23.693Z,100.00
2022-10-03T04:25:18.335Z,100.00
2022-10-03T04:28:07.582Z,100.00
2022-10-03T04:30:44.223Z,100.00
2022-10-03T04:33:27.152Z,100.00
2022-10-03T04:36:28.084Z,100.00
2022-10-03T04:39:03.381Z,100.00
2022-10-03T04:41:42.918Z,100.00
2022-10-03T04:44:28.195Z,100.00
2022-10-03T04:46:57.785Z,100.00
2022-10-03T04:49:32.471Z,100.00
2022-10-03T04:52:04.251Z,100.00
2022-10-03T04:54:43.684Z,100.00
2022-10-03T04:57:22.230Z,100.00
2022-10-03T04:59:55.841Z,100.00
2022-10-03T05:02:34.631Z,100.00
2022-10-03T05:05:27.074Z,100.00
2022-10-03T05:08:01.556Z,100.00
2022-10-03T05:10:48.812Z,100.00
2022-10-03T05:13:21.403Z,100.00
2022-10-03T05:16:01.754Z,100.00
2022-10-03T05:18:35.871Z,100.00
2022-10-03T05:21:10.923Z,100.00
2022-10-03T05:23:52.942Z,100.00
2022-10-03T05:26:45.780Z,100.00
2022-10-03T05:29:22.382Z,100.00
2022-10-03T05:32:00.936Z,100.00
2022-10-03T05:34:35.671Z,100.00
2022-10-03T05:37:21.363Z,100.00
2022-10-03T05:39:57.794Z,100.00
2022-10-03T05:42:37.435Z,100.00
2022-10-03T05:45:08.313Z,100.00
2022-10-03T05:47:49.656Z,100.00
2022-10-03T05:50:37.125Z,100.00
2022-10-03T05:53:27.533Z,100.00
2022-10-03T05:56:06.405Z,100.00
2022-10-03T05:58:58.786Z,100.00
2022-10-03T06:01:59.468Z,100.00
2022-10-03T06:05:18.393Z,100.00
2022-10-03T06:08:07.704Z,100.00
2022-10-03T06:10:45.563Z,100.00
2022-10-03T06:13:20.873Z,100.00
2022-10-03T06:15:55.591Z,100.00
2022-10-03T06:18:53.629Z,100.00
2022-10-03T06:21:47.588Z,100.00
2022-10-03T06:24:36.373Z,100.00
2022-10-03T06:27:52.730Z,100.00
2022-10-03T06:30:23.235Z,100.00
2022-10-03T06:33:33.233Z,100.00
2022-10-03T06:36:31.027Z,100.00
2022-10-03T06:39:44.440Z,100.00
2022-10-03T06:42:47.585Z,100.00
2022-10-03T06:45:42.567Z,100.00
2022-10-03T06:48:29.802Z,100.00
2022-10-03T06:51:10.367Z,100.00
2022-10-03T06:53:50.579Z,100.00
2022-10-03T06:57:03.347Z,100.00
2022-10-03T06:59:50.510Z,100.00
2022-10-03T07:02:36.280Z,100.00
2022-10-03T07:05:40.522Z,100.00
2022-10-03T07:08:48.841Z,100.00
2022-10-03T07:11:34.897Z,100.00
2022-10-03T07:14:28.511Z,100.00
2022-10-03T07:17:28.940Z,100.00
2022-10-03T07:20:24.480Z,100.00
2022-10-03T07:23:26.825Z,100.00
2022-10-03T07:26:28.267Z,100.00
2022-10-03T07:29:14.717Z,100.00
2022-10-03T07:31:55.567Z,100.00
2022-10-03T07:35:00.027Z,100.00
2022-10-03T07:38:02.997Z,100.00
2022-10-03T07:41:00.479Z,100.00
2022-10-03T07:43:56.530Z,100.00
2022-10-03T07:47:18.791Z,100.00
2022-10-03T07:50:19.859Z,100.00
2022-10-03T07:53:08.468Z,100.00
2022-10-03T07:56:00.627Z,100.00
2022-10-03T07:58:47.098Z,100.00
2022-10-03T08:01:31.140Z,100.00
2022-10-03T08:04:34.133Z,100.00
2022-10-03T08:07:13.284Z,100.00
2022-10-03T08:09:59.502Z,100.00
2022-10-03T08:12:50.242Z,100.00
2022-10-03T08:15:26.610Z,100.00
2022-10-03T08:18:07.285Z,100.00
2022-10-03T08:20:55.791Z,100.00
2022-10-03T08:23:46.672Z,100.00
2022-10-03T08:26:20.963Z,100.00
2022-10-03T08:29:02.662Z,100.00
2022-10-03T08:32:00.491Z,100.00
2022-10-03T08:35:04.182Z,100.00
2022-10-03T08:38:00.013Z,100.00
2022-10-03T08:41:01.841Z,100.00
2022-10-03T08:44:02.534Z,100.00
2022-10-03T08:47:01.785Z,100.00
2022-10-03T08:50:05.294Z,100.00
2022-10-03T08:52:43.684Z,100.00
2022-10-03T08:55:32.357Z,100.00
2022-10-03T08:58:16.623Z,100.00
2022-10-03T09:01:04.464Z,99.40
2022-10-03T09:04:04.564Z,91.09
2022-10-03T09:07:18.301Z,87.80
2022-10-03T09:10:08.755Z,87.97
2022-10-03T09:13:04.155Z,86.54
2022-10-03T09:16:26.172Z,85.29
2022-10-03T09:19:04.387Z,87.57
2022-10-03T09:21:45.978Z,81.57
2022-10-03T09:25:15.667Z,80.00
2022-10-03T09:28:19.216Z,78.90
2022-10-03T09:30:55.197Z,79.66
2022-10-03T09:34:01.044Z,77.09
2022-10-03T09:37:11.698Z,78.00
2022-10-03T09:40:17.379Z,79.07
2022-10-03T09:43:18.122Z,80.66
2022-10-03T09:46:22.257Z,81.21
2022-10-03T09:49:19.345Z,79.12
2022-10-03T09:51:58.424Z,79.44
2022-10-03T09:54:53.985Z,78.68
2022-10-03T10:00:22.942Z,78.20
2022-10-03T10:03:16.444Z,78.27
2022-10-03T10:06:06.364Z,78.04
2022-10-03T10:09:04.699Z,76.77
2022-10-03T10:12:04.687Z,77.63
2022-10-03T10:14:50.036Z,77.66
2022-10-03T10:17:56.812Z,78.44
2022-10-03T10:21:15.558Z,77.62
2022-10-03T10:23:54.735Z,75.54
2022-10-03T10:29:49.285Z,71.05
2022-10-03T10:33:01.522Z,71.95
2022-10-03T10:35:57.883Z,72.73
2022-10-03T10:38:36.037Z,73.17
2022-10-03T10:41:45.983Z,74.16
2022-10-03T10:44:43.224Z,72.46
2022-10-03T10:47:49.004Z,71.88
2022-10-03T10:50:56.137Z,71.67
2022-10-03T10:54:00.661Z,72.18
2022-10-03T10:57:04.626Z,72.48
2022-10-03T11:00:15.344Z,72.75
2022-10-03T11:03:25.604Z,72.35
2022-10-03T11:06:24.565Z,70.80
2022-10-03T11:09:43.325Z,69.31
2022-10-03T11:13:00.981Z,69.53
2022-10-03T11:16:06.059Z,70.06
2022-10-03T11:19:18.785Z,70.24
2022-10-03T11:22:40.558Z,69.94
2022-10-03T11:26:08.345Z,69.13
2022-10-03T11:29:30.004Z,68.56
2022-10-03T11:32:49.513Z,68.00
2022-10-03T11:35:36.750Z,67.37
2022-10-03T11:38:08.814Z,67.29
2022-10-03T11:40:45.544Z,67.54
2022-10-03T11:43:49.558Z,67.96
2022-10-03T11:46:27.605Z,68.31
2022-10-03T11:49:01.236Z,68.30
2022-10-03T11:51:39.226Z,68.63
2022-10-03T11:54:30.666Z,67.23
2022-10-03T11:57:03.043Z,64.63
2022-10-03T11:59:48.224Z,63.72
2022-10-03T12:02:28.713Z,64.97
2022-10-03T12:05:00.102Z,65.15
2022-10-03T12:08:02.897Z,63.42
2022-10-03T12:10:39.325Z,64.07
2022-10-03T12:13:15.193Z,63.77
2022-10-03T12:15:46.603Z,64.41
2022-10-03T12:18:20.942Z,66.15
2022-10-03T12:21:07.764Z,66.20
2022-10-03T12:23:58.814Z,65.83
2022-10-03T12:26:33.768Z,67.15
2022-10-03T12:29:02.284Z,69.13
2022-10-03T12:31:36.345Z,69.76
2022-10-03T12:34:32.943Z,71.07
2022-10-03T12:37:12.163Z,71.00
2022-10-03T12:39:46.385Z,72.48
2022-10-03T12:42:26.942Z,73.88
2022-10-03T12:44:59.869Z,74.24
2022-10-03T12:48:01.313Z,74.65
2022-10-03T12:50:41.094Z,74.04
2022-10-03T12:53:38.945Z,73.97
2022-10-03T12:56:13.084Z,71.96
2022-10-03T12:58:52.534Z,68.72
2022-10-03T13:01:29.328Z,68.60
2022-10-03T13:04:00.147Z,70.17
2022-10-03T13:07:02.415Z,69.84
2022-10-03T13:09:47.006Z,70.20
2022-10-03T13:12:27.493Z,70.16
2022-10-03T13:15:41.822Z,68.83
2022-10-03T13:18:21.105Z,67.25
2022-10-03T13:20:57.422Z,65.81
2022-10-03T13:23:36.795Z,63.98
2022-10-03T13:26:13.674Z,62.13
2022-10-03T13:28:59.570Z,55.68
2022-10-03T13:31:31.473Z,48.92
2022-10-03T13:34:01.564Z,48.35
2022-10-03T13:36:32.416Z,47.88
2022-10-03T13:39:11.845Z,46.75
2022-10-03T13:41:53.044Z,43.10
2022-10-03T13:44:24.642Z,41.58
2022-10-03T13:46:57.694Z,40.02
2022-10-03T13:49:32.340Z,38.33
2022-10-03T13:52:03.424Z,40.11
2022-10-03T13:54:52.584Z,42.98
2022-10-03T13:57:25.387Z,49.20
2022-10-03T14:00:05.012Z,51.35
2022-10-03T14:03:01.858Z,45.27
2022-10-03T14:05:52.157Z,44.14
2022-10-03T14:08:44.003Z,43.08
2022-10-03T14:11:22.894Z,42.75
2022-10-03T14:14:08.814Z,46.96
2022-10-03T14:16:40.063Z,49.70
2022-10-03T14:19:14.434Z,50.14
2022-10-03T14:22:02.365Z,49.64
2022-10-03T14:24:44.428Z,42.75
2022-10-03T14:27:42.645Z,41.31
2022-10-03T14:30:13.826Z,38.65
2022-10-03T14:32:56.520Z,37.54
2022-10-03T14:35:38.291Z,37.05
2022-10-03T14:38:53.314Z,36.11
2022-10-03T14:41:26.117Z,36.42
2022-10-03T14:43:56.918Z,36.04
2022-10-03T14:46:27.230Z,36.26
2022-10-03T14:48:59.414Z,36.99
2022-10-03T14:51:30.504Z,35.55
2022-10-03T14:54:02.890Z,35.77
2022-10-03T14:56:34.670Z,36.54
2022-10-03T14:59:13.184Z,36.41
2022-10-03T15:01:49.509Z,36.35
2022-10-03T15:04:25.524Z,35.58
2022-10-03T15:06:55.264Z,35.48
2022-10-03T15:09:27.424Z,39.66
2022-10-03T15:12:00.617Z,46.36
2022-10-03T15:14:34.025Z,51.32
2022-10-03T15:17:03.168Z,53.57
2022-10-03T15:19:37.204Z,55.14
2022-10-03T15:22:22.707Z,56.99
2022-10-03T15:24:52.442Z,57.56
2022-10-03T15:27:23.152Z,58.61
2022-10-03T15:29:56.875Z,58.75
2022-10-03T15:32:27.784Z,59.18
2022-10-03T15:34:58.572Z,60.43
2022-10-03T15:37:29.456Z,61.72
2022-10-03T15:40:03.005Z,60.83
2022-10-03T15:42:32.993Z,62.48
2022-10-03T15:45:05.640Z,62.85
2022-10-03T15:47:35.413Z,63.04
2022-10-03T15:50:07.387Z,63.23
2022-10-03T15:52:40.984Z,64.41
2022-10-03T15:55:16.053Z,65.00
2022-10-03T15:57:47.374Z,65.91
2022-10-03T16:00:26.333Z,67.25
2022-10-03T16:03:01.948Z,67.26
2022-10-03T16:05:31.061Z,68.52
2022-10-03T16:08:02.746Z,70.40
2022-10-03T16:10:34.945Z,70.86
2022-10-03T16:13:09.263Z,72.25
2022-10-03T16:15:53.861Z,73.47
2022-10-03T16:18:56.342Z,75.20
2022-10-03T16:21:33.417Z,75.96
2022-10-03T16:24:02.907Z,77.11
2022-10-03T16:26:34.736Z,78.91
2022-10-03T16:29:10.037Z,79.74
2022-10-03T16:31:43.983Z,81.95
2022-10-03T16:34:15.341Z,83.79
2022-10-03T16:36:45.284Z,88.00
2022-10-03T16:39:21.437Z,91.11
2022-10-03T16:41:52.464Z,95.94
2022-10-03T16:44:22.435Z,100.00
2022-10-03T16:46:52.694Z,100.00
2022-10-03T16:49:54.123Z,100.00
2022-10-03T16:52:25.058Z,100.00
2022-10-03T16:55:00.403Z,100.00
2022-10-03T16:57:33.914Z,100.00
2022-10-03T17:00:06.919Z,100.00
2022-10-03T17:02:38.126Z,100.00
2022-10-03T17:05:08.825Z,100.00
2022-10-03T17:07:40.255Z,100.00
2022-10-03T17:10:25.469Z,100.00
2022-10-03T17:12:57.909Z,100.00
2022-10-03T17:15:30.234Z,100.00
2022-10-03T17:18:10.854Z,100.00
2022-10-03T17:20:42.174Z,100.00
2022-10-03T17:23:13.194Z,100.00
2022-10-03T17:25:50.277Z,100.00
2022-10-03T17:28:30.199Z,100.00
2022-10-03T17:31:02.436Z,100.00
2022-10-03T17:33:39.701Z,100.00
2022-10-03T17:36:29.674Z,100.00
2022-10-03T17:39:03.807Z,100.00
2022-10-03T17:41:36.225Z,100.00
2022-10-03T17:44:19.518Z,100.00
2022-10-03T17:46:56.338Z,100.00
2022-10-03T17:49:36.504Z,100.00
2022-10-03T17:52:05.271Z,100.00
2022-10-03T17:54:36.115Z,100.00
2022-10-03T17:57:07.762Z,100.00
2022-10-03T17:59:44.747Z,100.00
2022-10-03T18:02:18.976Z,100.00
2022-10-03T18:04:50.995Z,100.00
2022-10-03T18:07:20.458Z,100.00
2022-10-03T18:09:50.144Z,100.00
2022-10-03T18:12:25.714Z,100.00
2022-10-03T18:15:23.015Z,100.00
2022-10-03T18:18:04.904Z,100.00
2022-10-03T18:20:44.118Z,100.00
2022-10-03T18:23:36.698Z,100.00
2022-10-03T18:26:20.059Z,100.00
2022-10-03T18:28:56.595Z,100.00
2022-10-03T18:31:25.500Z,100.00
2022-10-03T18:33:57.462Z,100.00
2022-10-03T18:36:28.305Z,100.00
2022-10-03T18:39:00.094Z,100.00
2022-10-03T18:41:28.849Z,100.00
2022-10-03T18:44:00.224Z,100.00
2022-10-03T18:46:31.254Z,100.00
2022-10-03T18:49:30.207Z,100.00
2022-10-03T18:51:54.895Z,100.00
2022-10-03T18:54:35.574Z,100.00
2022-10-03T18:57:10.518Z,100.00
2022-10-03T18:59:49.288Z,100.00
2022-10-03T19:02:23.309Z,100.00
2022-10-03T19:04:55.662Z,100.00
2022-10-03T19:07:26.407Z,100.00
2022-10-03T19:10:25.897Z,100.00
2022-10-03T19:13:00.245Z,100.00
2022-10-03T19:15:39.164Z,100.00
2022-10-03T19:18:18.624Z,100.00
2022-10-03T19:20:47.872Z,100.00
2022-10-03T19:23:22.988Z,100.00
2022-10-03T19:25:56.844Z,100.00
2022-10-03T19:28:28.817Z,100.00
2022-10-03T19:31:04.965Z,100.00
2022-10-03T19:33:34.564Z,100.00
2022-10-03T19:36:05.806Z,100.00
2022-10-03T19:38:39.132Z,100.00
2022-10-03T19:41:14.789Z,100.00
2022-10-03T19:43:44.497Z,100.00
2022-10-03T19:46:22.701Z,100.00
2022-10-03T19:49:06.704Z,100.00
2022-10-03T19:51:34.977Z,100.00
2022-10-03T19:54:14.305Z,100.00
2022-10-03T19:56:42.834Z,100.00
2022-10-03T19:59:16.031Z,100.00
2022-10-03T20:01:45.828Z,100.00
2022-10-03T20:04:18.972Z,100.00
2022-10-03T20:06:50.127Z,100.00
2022-10-03T20:09:22.887Z,100.00
2022-10-03T20:11:52.493Z,100.00
2022-10-03T20:14:26.744Z,100.00
2022-10-03T20:16:56.825Z,100.00
2022-10-03T20:19:27.205Z,100.00
2022-10-03T20:21:57.076Z,100.00
2022-10-03T20:24:33.144Z,100.00
2022-10-03T20:27:11.445Z,100.00
2022-10-03T20:29:43.544Z,100.00
2022-10-03T20:32:16.260Z,100.00
2022-10-03T20:34:49.145Z,100.00
2022-10-03T20:37:36.774Z,100.00
2022-10-03T20:40:19.854Z,100.00
2022-10-03T20:42:49.636Z,100.00
2022-10-03T20:45:23.792Z,100.00
2022-10-03T20:48:01.492Z,100.00
2022-10-03T20:50:32.757Z,100.00
2022-10-03T20:53:02.686Z,100.00
2022-10-03T20:55:34.703Z,100.00
2022-10-03T20:58:13.923Z,100.00
2022-10-03T21:00:46.147Z,100.00
2022-10-03T21:03:20.698Z,100.00
2022-10-03T21:05:51.724Z,100.00
2022-10-03T21:08:22.978Z,100.00
2022-10-03T21:10:55.884Z,100.00
2022-10-03T21:13:31.914Z,100.00
2022-10-03T21:16:01.683Z,100.00
2022-10-03T21:18:32.587Z,100.00
2022-10-03T21:21:05.926Z,100.00
2022-10-03T21:23:38.444Z,100.00
2022-10-03T21:26:08.785Z,100.00
2022-10-03T21:28:38.813Z,100.00
2022-10-03T21:31:17.876Z,100.00
2022-10-03T21:33:51.605Z,100.00
2022-10-03T21:36:23.764Z,100.00
2022-10-03T21:38:52.803Z,100.00
2022-10-03T21:41:28.324Z,100.00
2022-10-03T21:43:59.228Z,100.00
2022-10-03T21:46:34.464Z,100.00
2022-10-03T21:49:18.694Z,100.00
2022-10-03T21:52:03.564Z,100.00
2022-10-03T21:54:37.565Z,100.00
2022-10-03T21:57:12.237Z,100.00
2022-10-03T21:59:54.715Z,100.00
2022-10-03T22:02:28.605Z,100.00
2022-10-03T22:05:01.365Z,100.00
2022-10-03T22:07:36.646Z,100.00
2022-10-03T22:10:06.913Z,100.00
2022-10-03T22:12:43.743Z,100.00
2022-10-03T22:15:16.900Z,100.00
2022-10-03T22:17:50.824Z,100.00
2022-10-03T22:20:23.055Z,100.00
2022-10-03T22:23:09.054Z,100.00
2022-10-03T22:25:48.349Z,100.00
2022-10-03T22:28:24.761Z,100.00
2022-10-03T22:31:00.222Z,100.00
2022-10-03T22:33:36.368Z,100.00
2022-10-03T22:36:05.096Z,100.00
2022-10-03T22:38:36.294Z,100.00
2022-10-03T22:41:06.841Z,100.00
2022-10-03T22:43:38.495Z,100.00
2022-10-03T22:46:07.842Z,100.00
2022-10-03T22:48:41.011Z,100.00
2022-10-03T22:51:12.026Z,100.00
2022-10-03T22:53:42.202Z,100.00
2022-10-03T22:56:33.200Z,100.00
2022-10-03T22:59:03.481Z,100.00
2022-10-03T23:01:32.531Z,100.00
2022-10-03T23:04:01.243Z,100.00
2022-10-03T23:06:45.201Z,100.00
2022-10-03T23:09:20.547Z,100.00
2022-10-03T23:11:51.111Z,100.00
2022-10-03T23:14:24.019Z,100.00
2022-10-03T23:16:54.956Z,100.00
2022-10-03T23:19:37.731Z,100.00
2022-10-03T23:22:07.392Z,100.00
2022-10-03T23:24:39.841Z,100.00
2022-10-03T23:27:23.281Z,100.00
2022-10-03T23:30:51.130Z,100.00
2022-10-03T23:33:48.461Z,100.00
2022-10-03T23:36:19.055Z,100.00
2022-10-03T23:39:01.655Z,100.00
2022-10-03T23:41:56.830Z,100.00
2022-10-03T23:44:32.842Z,100.00
2022-10-03T23:47:02.655Z,100.00
2022-10-03T23:49:33.306Z,100.00
2022-10-03T23:52:01.645Z,100.00
2022-10-03T23:54:29.913Z,100.00
2022-10-03T23:57:05.452Z,100.00
2022-10-03T23:59:36.692Z,100.00
